createdAt,value
2017-12-29T00:51:35.884Z,2.70
2017-12-29T00:52:41.014Z,2.70
2017-12-29T00:53:45.918Z,2.70
2017-12-29T00:54:51.088Z,2.80
2017-12-29T00:55:56.881Z,2.80
2017-12-29T00:57:01.682Z,2.80
2017-12-29T00:58:06.777Z,2.80
2017-12-29T00:59:12.289Z,2.80
2017-12-29T01:00:17.094Z,2.80
2017-12-29T01:01:21.846Z,2.90
2017-12-29T01:02:27.324Z,2.80
2017-12-29T01:03:32.485Z,2.80
2017-12-29T01:04:37.208Z,2.70
2017-12-29T01:05:41.982Z,2.80
2017-12-29T01:06:46.782Z,2.80
2017-12-29T01:07:51.851Z,2.80
2017-12-29T01:08:56.796Z,2.80
2017-12-29T01:10:01.824Z,2.80
2017-12-29T01:11:06.638Z,2.80
2017-12-29T01:12:11.504Z,2.80
2017-12-29T01:13:16.257Z,2.90
2017-12-29T01:14:21.028Z,2.80
2017-12-29T01:15:25.804Z,2.90
2017-12-29T01:16:30.878Z,2.90
2017-12-29T01:17:35.698Z,2.90
2017-12-29T01:18:40.766Z,2.90
2017-12-29T01:19:45.754Z,2.90
2017-12-29T01:20:50.735Z,2.90
2017-12-29T01:21:56.399Z,3.00
2017-12-29T01:23:01.508Z,2.90
2017-12-29T01:24:08.088Z,3.00
2017-12-29T01:25:12.914Z,3.00
2017-12-29T01:26:17.654Z,2.90
2017-12-29T01:27:22.472Z,3.00
2017-12-29T01:28:27.262Z,3.00
2017-12-29T01:29:32.462Z,2.90
2017-12-29T01:30:38.187Z,2.90
2017-12-29T01:31:43.339Z,2.90
2017-12-29T01:32:49.714Z,3.00
2017-12-29T01:33:54.486Z,3.00
2017-12-29T01:34:59.295Z,3.00
2017-12-29T01:36:04.493Z,3.10
2017-12-29T01:37:09.569Z,3.10
2017-12-29T01:38:15.148Z,3.00
2017-12-29T01:39:19.976Z,3.00
2017-12-29T01:40:24.795Z,3.10
2017-12-29T01:41:29.595Z,3.00
2017-12-29T01:42:34.645Z,3.00
2017-12-29T01:43:39.394Z,3.00
2017-12-29T01:44:44.136Z,2.90
2017-12-29T01:45:49.707Z,2.80
2017-12-29T01:46:54.511Z,2.80
2017-12-29T01:47:59.978Z,2.90
2017-12-29T01:49:04.986Z,2.90
2017-12-29T01:50:09.756Z,2.90
2017-12-29T01:51:15.362Z,2.80
2017-12-29T01:52:20.108Z,2.80
2017-12-29T01:53:25.805Z,2.90
2017-12-29T01:54:30.747Z,2.80
2017-12-29T01:55:36.023Z,2.90
2017-12-29T01:56:43.171Z,2.90
2017-12-29T01:57:48.992Z,2.90
2017-12-29T01:58:54.042Z,2.90
2017-12-29T01:59:58.863Z,2.90
2017-12-29T02:01:05.096Z,2.80
2017-12-29T02:02:10.139Z,2.80
2017-12-29T02:03:15.774Z,2.80
2017-12-29T02:04:21.346Z,2.80
2017-12-29T02:05:26.099Z,2.80
2017-12-29T02:06:30.867Z,2.90
2017-12-29T02:07:36.754Z,2.80
2017-12-29T02:08:41.912Z,2.80
2017-12-29T02:09:47.811Z,2.80
2017-12-29T02:10:52.739Z,2.80
2017-12-29T02:11:57.525Z,2.80
2017-12-29T02:13:02.350Z,2.70
2017-12-29T02:14:07.488Z,2.70
2017-12-29T02:15:12.800Z,2.80
2017-12-29T02:16:17.751Z,2.70
2017-12-29T02:17:22.962Z,2.70
2017-12-29T02:18:28.241Z,2.70
2017-12-29T02:19:33.267Z,2.80
2017-12-29T02:20:38.603Z,2.80
2017-12-29T02:21:45.847Z,2.80
2017-12-29T02:22:50.580Z,2.80
2017-12-29T02:23:55.849Z,2.80
2017-12-29T02:25:01.697Z,2.90
2017-12-29T02:26:07.482Z,2.90
2017-12-29T02:27:12.743Z,3.00
2017-12-29T02:28:18.880Z,3.00
2017-12-29T02:29:24.481Z,3.00
2017-12-29T02:30:30.499Z,3.10
2017-12-29T02:31:36.452Z,3.10
2017-12-29T02:32:41.675Z,3.10
2017-12-29T02:33:47.378Z,3.20
2017-12-29T02:34:53.006Z,3.20
2017-12-29T02:35:58.653Z,3.20
2017-12-29T02:37:03.513Z,3.20
2017-12-29T02:38:08.594Z,3.20
2017-12-29T02:39:13.778Z,3.20
2017-12-29T02:40:18.757Z,3.20
2017-12-29T02:41:24.253Z,3.10
2017-12-29T02:42:29.425Z,3.10
2017-12-29T02:43:34.330Z,3.10
2017-12-29T02:44:39.470Z,3.10
2017-12-29T02:45:44.232Z,3.00
2017-12-29T02:46:48.991Z,3.00
2017-12-29T02:47:54.034Z,3.00
2017-12-29T02:48:58.746Z,3.00
2017-12-29T02:50:03.851Z,2.90
2017-12-29T02:51:09.002Z,2.90
2017-12-29T02:52:13.719Z,2.90
2017-12-29T02:53:18.650Z,2.90
2017-12-29T02:54:24.454Z,2.90
2017-12-29T02:55:29.210Z,2.80
2017-12-29T02:56:34.816Z,2.80
2017-12-29T02:57:39.511Z,2.70
2017-12-29T02:58:45.480Z,2.70
2017-12-29T02:59:50.493Z,2.70
2017-12-29T03:00:55.651Z,2.70
2017-12-29T03:02:00.537Z,2.70
2017-12-29T03:03:05.692Z,2.60
2017-12-29T03:04:10.528Z,2.60
2017-12-29T03:05:16.043Z,2.60
2017-12-29T03:06:20.815Z,2.60
2017-12-29T03:07:26.006Z,2.60
2017-12-29T03:08:31.833Z,2.60
2017-12-29T03:09:37.039Z,2.60
2017-12-29T03:10:42.491Z,2.60
2017-12-29T03:11:47.620Z,2.60
2017-12-29T03:12:53.133Z,2.60
2017-12-29T03:13:58.114Z,2.60
2017-12-29T03:15:03.180Z,2.60
2017-12-29T03:16:07.913Z,2.60
2017-12-29T03:17:12.696Z,2.50
2017-12-29T03:18:17.400Z,2.50
2017-12-29T03:19:22.145Z,2.50
2017-12-29T03:20:27.146Z,2.50
2017-12-29T03:21:31.862Z,2.50
2017-12-29T03:22:36.561Z,2.60
2017-12-29T03:23:42.201Z,2.50
2017-12-29T03:24:47.046Z,2.50
2017-12-29T03:25:52.058Z,2.50
2017-12-29T03:26:56.797Z,2.50
2017-12-29T03:28:01.481Z,2.50
2017-12-29T03:29:06.236Z,2.50
2017-12-29T03:30:11.109Z,2.50
2017-12-29T03:31:15.820Z,2.50
2017-12-29T03:32:21.587Z,2.50
2017-12-29T03:33:26.396Z,2.50
2017-12-29T03:34:31.292Z,2.50
2017-12-29T03:35:36.144Z,2.50
2017-12-29T03:36:40.993Z,2.50
2017-12-29T03:37:45.713Z,2.50
2017-12-29T03:38:51.230Z,2.50
2017-12-29T03:39:55.925Z,2.50
2017-12-29T03:41:00.633Z,2.50
2017-12-29T03:42:07.033Z,2.40
2017-12-29T03:43:12.063Z,2.40
2017-12-29T03:44:16.798Z,2.40
2017-12-29T03:45:21.764Z,2.40
2017-12-29T03:46:26.455Z,2.40
2017-12-29T03:47:31.245Z,2.40
2017-12-29T03:48:36.130Z,2.40
2017-12-29T03:49:40.871Z,2.40
2017-12-29T03:50:45.605Z,2.30
2017-12-29T03:51:50.674Z,2.20
2017-12-29T03:52:55.388Z,2.30
2017-12-29T03:54:00.125Z,2.20
2017-12-29T03:55:05.779Z,2.20
2017-12-29T03:56:10.488Z,2.20
2017-12-29T03:57:15.206Z,2.20
2017-12-29T03:58:20.238Z,2.20
2017-12-29T03:59:25.329Z,2.20
2017-12-29T04:00:30.185Z,2.20
2017-12-29T04:01:34.950Z,2.20
2017-12-29T04:02:39.758Z,2.20
2017-12-29T04:03:44.449Z,2.20
2017-12-29T04:04:49.477Z,2.10
2017-12-29T04:05:54.202Z,2.10
2017-12-29T04:06:58.920Z,2.10
2017-12-29T04:08:03.585Z,2.10
2017-12-29T04:09:08.287Z,2.10
2017-12-29T04:10:13.018Z,2.10
2017-12-29T04:11:17.998Z,2.00
2017-12-29T04:12:22.676Z,2.00
2017-12-29T04:13:27.404Z,1.90
2017-12-29T04:14:32.142Z,1.70
2017-12-29T04:15:36.834Z,1.70
2017-12-29T04:16:41.509Z,1.60
2017-12-29T04:17:46.529Z,1.60
2017-12-29T04:18:51.996Z,1.60
2017-12-29T04:19:56.709Z,1.60
2017-12-29T04:21:01.405Z,1.60
2017-12-29T04:22:06.132Z,1.50
2017-12-29T04:23:10.806Z,1.50
2017-12-29T04:24:15.809Z,1.50
2017-12-29T04:25:20.505Z,1.50
2017-12-29T04:26:25.163Z,1.60
2017-12-29T04:27:29.826Z,1.60
2017-12-29T04:28:34.546Z,1.60
2017-12-29T04:29:39.258Z,1.60
2017-12-29T04:30:44.231Z,1.60
2017-12-29T04:31:48.994Z,1.60
2017-12-29T04:32:53.698Z,1.60
2017-12-29T04:33:58.493Z,1.60
2017-12-29T04:35:03.975Z,1.50
2017-12-29T04:36:08.658Z,1.50
2017-12-29T04:37:14.410Z,1.60
2017-12-29T04:38:19.097Z,1.50
2017-12-29T04:39:24.629Z,1.60
2017-12-29T04:40:29.331Z,1.60
2017-12-29T04:41:34.022Z,1.60
2017-12-29T04:42:38.731Z,1.60
2017-12-29T04:43:43.753Z,1.60
2017-12-29T04:46:17.750Z,1.70
2017-12-29T04:47:22.473Z,1.70
2017-12-29T04:48:27.152Z,1.60
2017-12-29T04:49:32.858Z,1.60
2017-12-29T04:50:37.838Z,1.60
2017-12-29T04:51:42.609Z,1.60
2017-12-29T04:52:47.446Z,1.60
2017-12-29T04:53:53.082Z,1.70
2017-12-29T04:54:57.741Z,1.70
2017-12-29T04:56:02.450Z,1.70
2017-12-29T04:57:07.446Z,1.70
2017-12-29T04:58:12.909Z,1.60
2017-12-29T04:59:17.590Z,1.60
2017-12-29T05:00:22.293Z,1.60
2017-12-29T05:01:27.060Z,1.60
2017-12-29T05:02:31.773Z,1.60
2017-12-29T05:03:36.806Z,1.60
2017-12-29T05:04:41.479Z,1.60
2017-12-29T05:05:46.938Z,1.50
2017-12-29T05:06:51.638Z,1.50
2017-12-29T05:07:57.070Z,1.60
2017-12-29T05:09:02.535Z,1.60
2017-12-29T05:10:07.729Z,1.60
2017-12-29T05:11:13.170Z,1.60
2017-12-29T05:12:18.620Z,1.60
2017-12-29T05:13:23.349Z,1.60
2017-12-29T05:14:28.519Z,1.60
2017-12-29T05:15:33.646Z,1.60
2017-12-29T05:16:39.095Z,1.60
2017-12-29T05:17:44.202Z,1.60
2017-12-29T05:18:49.821Z,1.60
2017-12-29T05:19:54.525Z,1.60
2017-12-29T05:20:59.216Z,1.60
2017-12-29T05:22:04.050Z,1.60
2017-12-29T05:23:10.323Z,1.60
2017-12-29T05:24:15.075Z,1.50
2017-12-29T05:25:21.220Z,1.60
2017-12-29T05:26:26.730Z,1.60
2017-12-29T05:27:32.261Z,1.60
2017-12-29T05:28:37.226Z,1.60
2017-12-29T05:29:43.257Z,1.60
2017-12-29T05:30:48.047Z,1.60
2017-12-29T05:31:53.286Z,1.60
2017-12-29T05:32:57.957Z,1.60
2017-12-29T05:34:02.659Z,1.60
2017-12-29T05:35:08.259Z,1.60
2017-12-29T05:36:13.642Z,1.60
2017-12-29T05:37:18.338Z,1.60
2017-12-29T05:38:23.801Z,1.60
2017-12-29T05:39:28.490Z,1.60
2017-12-29T05:40:33.911Z,1.60
2017-12-29T05:41:40.310Z,1.60
2017-12-29T05:42:45.386Z,1.60
2017-12-29T05:43:50.105Z,1.50
2017-12-29T05:44:54.840Z,1.50
2017-12-29T05:46:00.341Z,1.50
2017-12-29T05:47:05.030Z,1.50
2017-12-29T05:48:09.709Z,1.50
2017-12-29T05:49:15.536Z,1.40
2017-12-29T05:50:21.002Z,1.40
2017-12-29T05:51:25.676Z,1.40
2017-12-29T05:52:30.391Z,1.50
2017-12-29T05:53:35.105Z,1.50
2017-12-29T05:54:39.790Z,1.50
2017-12-29T05:55:44.597Z,1.50
2017-12-29T05:56:49.302Z,1.50
2017-12-29T05:57:54.069Z,1.50
2017-12-29T05:58:58.768Z,1.40
2017-12-29T06:00:03.481Z,1.40
2017-12-29T06:01:08.215Z,1.50
2017-12-29T06:02:12.913Z,1.50
2017-12-29T06:03:18.426Z,1.40
2017-12-29T06:04:23.675Z,1.40
2017-12-29T06:05:30.161Z,1.40
2017-12-29T06:06:35.245Z,1.40
2017-12-29T06:07:40.945Z,1.40
2017-12-29T06:08:45.650Z,1.30
2017-12-29T06:09:50.313Z,1.30
2017-12-29T06:10:55.044Z,1.30
2017-12-29T06:11:59.748Z,1.40
2017-12-29T06:13:04.978Z,1.40
2017-12-29T06:14:09.657Z,1.40
2017-12-29T06:15:14.361Z,1.40
2017-12-29T06:16:19.050Z,1.40
2017-12-29T06:17:23.822Z,1.40
2017-12-29T06:18:29.393Z,1.40
2017-12-29T06:19:34.726Z,1.40
2017-12-29T06:20:39.520Z,1.40
2017-12-29T06:21:44.365Z,1.40
2017-12-29T06:22:49.115Z,1.40
2017-12-29T06:23:53.911Z,1.40
2017-12-29T06:24:58.704Z,1.30
2017-12-29T06:26:03.902Z,1.40
2017-12-29T06:27:09.424Z,1.40
2017-12-29T06:28:14.170Z,1.40
2017-12-29T06:29:20.257Z,1.40
2017-12-29T06:30:24.982Z,1.40
2017-12-29T06:31:29.668Z,1.40
2017-12-29T06:32:35.732Z,1.40
2017-12-29T06:33:40.572Z,1.40
2017-12-29T06:34:45.358Z,1.30
2017-12-29T06:35:50.092Z,1.30
2017-12-29T06:36:54.863Z,1.30
2017-12-29T06:37:59.643Z,1.20
2017-12-29T06:39:05.248Z,1.20
2017-12-29T06:40:09.986Z,1.20
2017-12-29T06:41:14.653Z,1.20
2017-12-29T06:42:20.093Z,1.20
2017-12-29T06:43:25.587Z,1.20
2017-12-29T06:44:30.372Z,1.20
2017-12-29T06:45:35.144Z,1.10
2017-12-29T06:46:40.737Z,1.20
2017-12-29T06:47:45.478Z,1.20
2017-12-29T06:48:50.220Z,1.20
2017-12-29T06:49:55.054Z,1.20
2017-12-29T06:50:59.750Z,1.20
2017-12-29T06:52:04.860Z,1.20
2017-12-29T06:53:09.610Z,1.10
2017-12-29T06:54:14.378Z,1.10
2017-12-29T06:55:19.129Z,1.10
2017-12-29T06:56:23.948Z,1.10
2017-12-29T06:57:29.096Z,1.00
2017-12-29T06:58:34.226Z,1.10
2017-12-29T06:59:39.376Z,1.10
2017-12-29T07:00:44.571Z,1.10
2017-12-29T07:01:50.034Z,1.10
2017-12-29T07:02:54.730Z,1.10
2017-12-29T07:03:59.439Z,1.10
2017-12-29T07:05:05.907Z,1.10
2017-12-29T07:06:10.640Z,1.10
2017-12-29T07:07:15.431Z,1.10
2017-12-29T07:08:20.275Z,1.10
2017-12-29T07:09:25.525Z,1.20
2017-12-29T07:10:30.357Z,1.20
2017-12-29T07:11:36.626Z,1.10
2017-12-29T07:12:41.410Z,1.10
2017-12-29T07:13:46.233Z,1.00
2017-12-29T07:14:51.444Z,1.00
2017-12-29T07:15:56.246Z,0.90
2017-12-29T07:17:01.022Z,0.90
2017-12-29T07:18:06.107Z,0.90
2017-12-29T07:19:10.841Z,0.90
2017-12-29T07:20:15.586Z,0.90
2017-12-29T07:21:20.338Z,0.90
2017-12-29T07:22:26.407Z,0.90
2017-12-29T07:23:31.103Z,0.90
2017-12-29T07:24:36.179Z,0.90
2017-12-29T07:25:41.240Z,0.90
2017-12-29T07:26:47.160Z,0.90
2017-12-29T07:27:52.203Z,0.90
2017-12-29T07:28:57.937Z,0.90
2017-12-29T07:30:04.791Z,0.90
2017-12-29T07:31:10.403Z,0.90
2017-12-29T07:32:15.484Z,0.90
2017-12-29T07:33:20.483Z,0.90
2017-12-29T07:34:26.295Z,0.90
2017-12-29T07:35:31.334Z,0.90
2017-12-29T07:36:36.572Z,1.00
2017-12-29T07:37:41.763Z,1.00
2017-12-29T07:38:47.045Z,1.00
2017-12-29T07:39:52.274Z,1.10
2017-12-29T07:40:58.250Z,1.20
2017-12-29T07:42:03.379Z,1.10
2017-12-29T07:43:08.154Z,1.20
2017-12-29T07:44:13.417Z,1.30
2017-12-29T07:45:18.347Z,1.30
2017-12-29T07:46:23.290Z,1.40
2017-12-29T07:47:28.272Z,1.40
2017-12-29T07:48:33.849Z,1.50
2017-12-29T07:49:38.856Z,1.50
2017-12-29T07:50:44.176Z,1.50
2017-12-29T07:51:48.960Z,1.50
2017-12-29T07:52:53.893Z,1.50
2017-12-29T07:53:59.437Z,1.50
2017-12-29T07:55:04.800Z,1.60
2017-12-29T07:56:09.614Z,1.60
2017-12-29T07:57:14.989Z,1.60
2017-12-29T07:58:19.975Z,1.60
2017-12-29T07:59:24.927Z,1.60
2017-12-29T08:00:29.821Z,1.70
2017-12-29T08:01:34.917Z,1.70
2017-12-29T08:02:40.533Z,1.80
2017-12-29T08:03:45.933Z,1.70
2017-12-29T08:04:50.792Z,1.80
2017-12-29T08:05:56.485Z,1.80
2017-12-29T08:07:01.361Z,1.80
2017-12-29T08:08:06.921Z,1.80
2017-12-29T08:09:11.770Z,1.80
2017-12-29T08:10:17.143Z,1.80
2017-12-29T08:11:22.766Z,1.80
2017-12-29T08:12:28.451Z,1.80
2017-12-29T08:13:33.223Z,1.80
2017-12-29T08:14:37.965Z,1.80
2017-12-29T08:15:43.442Z,1.90
2017-12-29T08:16:48.766Z,1.90
2017-12-29T08:17:53.691Z,1.90
2017-12-29T08:18:58.581Z,1.90
2017-12-29T08:20:03.490Z,1.90
2017-12-29T08:21:09.080Z,2.00
2017-12-29T08:22:13.958Z,1.90
2017-12-29T08:23:19.291Z,2.00
2017-12-29T08:24:24.046Z,2.10
2017-12-29T08:25:28.766Z,2.00
2017-12-29T08:26:33.537Z,2.10
2017-12-29T08:27:39.107Z,2.10
2017-12-29T08:28:43.942Z,2.10
2017-12-29T08:29:49.342Z,2.20
2017-12-29T08:30:54.501Z,2.20
2017-12-29T08:31:59.316Z,2.30
2017-12-29T08:33:04.050Z,2.30
2017-12-29T08:34:08.784Z,2.40
2017-12-29T08:35:13.533Z,2.40
2017-12-29T08:36:18.605Z,2.40
2017-12-29T08:37:23.292Z,2.40
2017-12-29T08:38:27.977Z,2.50
2017-12-29T08:39:33.411Z,2.50
2017-12-29T08:40:38.889Z,2.60
2017-12-29T08:41:43.601Z,2.60
2017-12-29T08:42:48.801Z,2.60
2017-12-29T08:43:53.498Z,2.70
2017-12-29T08:44:59.044Z,2.80
2017-12-29T08:46:03.747Z,2.70
2017-12-29T08:47:09.282Z,2.90
2017-12-29T08:48:14.754Z,2.90
2017-12-29T08:49:19.979Z,2.90
2017-12-29T08:50:24.688Z,2.90
2017-12-29T08:51:29.547Z,3.00
2017-12-29T08:52:34.246Z,3.10
2017-12-29T08:53:39.055Z,3.10
2017-12-29T08:54:43.769Z,3.20
2017-12-29T08:55:48.892Z,3.30
2017-12-29T08:56:53.604Z,3.30
2017-12-29T08:57:58.314Z,3.40
2017-12-29T08:59:03.020Z,3.50
2017-12-29T09:00:07.874Z,3.40
2017-12-29T09:01:12.552Z,3.50
2017-12-29T09:02:18.392Z,3.60
2017-12-29T09:03:23.093Z,3.60
2017-12-29T09:04:27.827Z,3.70
2017-12-29T09:05:33.346Z,3.70
2017-12-29T09:06:38.022Z,3.70
2017-12-29T09:07:42.771Z,3.80
2017-12-29T09:08:47.819Z,3.80
2017-12-29T09:09:53.296Z,3.80
2017-12-29T09:10:58.425Z,3.80
2017-12-29T09:12:03.171Z,3.90
2017-12-29T09:13:08.767Z,3.90
2017-12-29T09:14:13.627Z,3.90
2017-12-29T09:15:18.754Z,4.00
2017-12-29T09:16:23.518Z,4.00
2017-12-29T09:17:28.259Z,4.00
2017-12-29T09:18:32.976Z,4.00
2017-12-29T09:19:37.653Z,4.00
2017-12-29T09:20:43.224Z,4.00
2017-12-29T09:21:48.345Z,4.00
2017-12-29T09:22:53.233Z,4.00
2017-12-29T09:23:58.732Z,4.10
2017-12-29T09:25:03.514Z,4.10
2017-12-29T09:26:08.234Z,4.20
2017-12-29T09:27:12.994Z,4.30
2017-12-29T09:28:18.018Z,4.30
2017-12-29T09:29:22.747Z,4.40
2017-12-29T09:30:28.239Z,4.50
2017-12-29T09:31:32.978Z,4.50
2017-12-29T09:32:37.714Z,4.60
2017-12-29T09:33:43.202Z,4.70
2017-12-29T09:34:48.391Z,4.60
2017-12-29T09:35:53.210Z,4.70
2017-12-29T09:36:58.725Z,4.80
2017-12-29T09:38:03.472Z,4.80
2017-12-29T09:39:08.979Z,4.90
2017-12-29T09:40:27.185Z,4.90
2017-12-29T09:41:32.400Z,5.00
2017-12-29T09:42:37.273Z,5.00
2017-12-29T09:43:43.045Z,5.00
2017-12-29T09:44:47.791Z,5.00
2017-12-29T09:45:52.540Z,5.10
2017-12-29T09:46:57.773Z,5.20
2017-12-29T09:48:02.539Z,5.30
2017-12-29T09:49:07.251Z,5.40
2017-12-29T09:50:11.954Z,5.40
2017-12-29T09:51:16.679Z,5.50
2017-12-29T09:52:21.469Z,5.60
2017-12-29T09:53:27.447Z,5.70
2017-12-29T09:54:32.220Z,5.70
2017-12-29T09:55:36.988Z,5.70
2017-12-29T09:56:41.709Z,5.80
2017-12-29T09:57:46.483Z,5.80
2017-12-29T09:58:51.944Z,5.80
2017-12-29T09:59:57.166Z,5.80
2017-12-29T10:01:01.886Z,5.80
2017-12-29T10:02:06.607Z,5.90
2017-12-29T10:03:11.358Z,6.00
2017-12-29T10:04:16.114Z,6.10
2017-12-29T10:05:21.609Z,6.30
2017-12-29T10:06:26.606Z,6.30
2017-12-29T10:07:31.333Z,6.30
2017-12-29T10:08:36.057Z,6.40
2017-12-29T10:09:40.805Z,6.40
2017-12-29T10:10:45.552Z,6.40
2017-12-29T10:11:50.283Z,6.50
2017-12-29T10:12:55.396Z,6.60
2017-12-29T10:14:00.908Z,6.60
2017-12-29T10:15:06.413Z,6.50
2017-12-29T10:16:11.206Z,6.50
2017-12-29T10:17:15.964Z,6.40
2017-12-29T10:18:20.682Z,6.40
2017-12-29T10:19:25.685Z,6.50
2017-12-29T10:20:31.223Z,6.40
2017-12-29T10:21:35.950Z,6.40
2017-12-29T10:22:40.633Z,6.50
2017-12-29T10:23:45.357Z,6.50
2017-12-29T10:24:50.723Z,6.50
2017-12-29T10:25:55.816Z,6.60
2017-12-29T10:27:00.484Z,6.60
2017-12-29T10:28:05.228Z,6.60
2017-12-29T10:29:09.961Z,6.50
2017-12-29T10:30:14.690Z,6.40
2017-12-29T10:31:19.490Z,6.40
2017-12-29T10:32:24.628Z,6.30
2017-12-29T10:33:29.335Z,6.30
2017-12-29T10:34:34.050Z,6.30
2017-12-29T10:35:38.761Z,6.40
2017-12-29T10:36:43.469Z,6.40
2017-12-29T10:37:48.147Z,6.40
2017-12-29T10:38:53.996Z,6.30
2017-12-29T10:39:58.702Z,6.20
2017-12-29T10:41:03.423Z,6.10
2017-12-29T10:42:08.158Z,6.10
2017-12-29T10:43:12.908Z,6.10
2017-12-29T10:44:17.669Z,6.00
2017-12-29T10:45:22.793Z,6.00
2017-12-29T10:46:27.503Z,5.90
2017-12-29T10:47:32.226Z,6.00
2017-12-29T10:48:45.237Z,5.90
2017-12-29T10:49:50.164Z,5.90
2017-12-29T10:50:54.902Z,5.80
2017-12-29T10:52:00.757Z,5.90
2017-12-29T10:53:06.258Z,5.80
2017-12-29T10:54:10.977Z,5.80
2017-12-29T10:55:15.688Z,5.70
2017-12-29T10:56:20.394Z,5.70
2017-12-29T10:57:26.944Z,5.60
2017-12-29T10:58:35.962Z,5.70
2017-12-29T10:59:40.739Z,5.60
2017-12-29T11:00:45.512Z,5.50
2017-12-29T11:01:50.207Z,5.50
2017-12-29T11:02:54.893Z,5.50
2017-12-29T11:04:00.464Z,5.50
2017-12-29T11:05:05.573Z,5.50
2017-12-29T11:06:10.316Z,5.60
2017-12-29T11:07:15.057Z,5.60
2017-12-29T11:08:19.869Z,5.60
2017-12-29T11:09:24.639Z,5.70
2017-12-29T11:10:29.376Z,5.80
2017-12-29T11:11:34.463Z,5.80
2017-12-29T11:12:40.025Z,5.80
2017-12-29T11:13:44.759Z,5.80
2017-12-29T11:14:49.508Z,5.70
2017-12-29T11:15:54.270Z,5.80
2017-12-29T11:16:58.993Z,5.80
2017-12-29T11:18:05.021Z,5.70
2017-12-29T11:19:09.767Z,5.80
2017-12-29T11:20:14.464Z,5.80
2017-12-29T11:21:19.225Z,5.60
2017-12-29T11:22:23.941Z,5.70
2017-12-29T11:23:28.630Z,5.60
2017-12-29T11:24:33.718Z,5.60
2017-12-29T11:25:39.272Z,5.70
2017-12-29T11:26:44.017Z,5.60
2017-12-29T11:27:48.718Z,5.70
2017-12-29T11:28:53.506Z,5.70
2017-12-29T11:29:58.982Z,5.70
2017-12-29T11:31:04.078Z,5.70
2017-12-29T11:32:09.552Z,5.70
2017-12-29T11:33:14.249Z,5.70
2017-12-29T11:34:18.983Z,5.70
2017-12-29T11:35:23.795Z,5.70
2017-12-29T11:36:28.516Z,5.60
2017-12-29T11:37:33.623Z,5.60
2017-12-29T11:38:38.345Z,5.60
2017-12-29T11:39:43.061Z,5.70
2017-12-29T11:40:47.769Z,5.70
2017-12-29T11:41:52.474Z,5.70
2017-12-29T11:42:58.686Z,5.80
2017-12-29T11:44:03.745Z,5.80
2017-12-29T11:45:09.228Z,5.80
2017-12-29T11:46:14.003Z,5.80
2017-12-29T11:47:18.788Z,5.70
2017-12-29T11:48:23.487Z,5.70
2017-12-29T11:49:28.243Z,5.60
2017-12-29T11:50:34.402Z,5.60
2017-12-29T11:51:40.243Z,5.60
2017-12-29T11:52:46.002Z,5.50
2017-12-29T11:53:50.714Z,5.50
2017-12-29T11:54:55.484Z,5.50
2017-12-29T11:56:00.202Z,5.50
2017-12-29T11:57:05.261Z,5.40
2017-12-29T11:58:10.763Z,5.40
2017-12-29T11:59:16.507Z,5.50
2017-12-29T12:00:21.369Z,5.50
2017-12-29T12:01:26.077Z,5.60
2017-12-29T12:02:30.849Z,5.60
2017-12-29T12:03:36.023Z,5.70
2017-12-29T12:04:41.529Z,5.90
2017-12-29T12:05:47.082Z,6.00
2017-12-29T12:06:52.645Z,6.00
2017-12-29T12:07:57.409Z,6.00
2017-12-29T12:09:02.120Z,6.00
2017-12-29T12:10:07.198Z,5.90
2017-12-29T12:11:11.926Z,6.00
2017-12-29T12:12:16.755Z,6.00
2017-12-29T12:13:21.474Z,5.90
2017-12-29T12:14:26.290Z,5.90
2017-12-29T12:15:31.065Z,5.90
2017-12-29T12:16:36.299Z,5.80
2017-12-29T12:17:41.883Z,5.70
2017-12-29T12:18:46.692Z,5.70
2017-12-29T12:19:51.471Z,5.60
2017-12-29T12:20:56.949Z,5.50
2017-12-29T12:22:01.689Z,5.50
2017-12-29T12:23:06.852Z,5.50
2017-12-29T12:24:12.398Z,5.50
2017-12-29T12:25:17.487Z,5.50
2017-12-29T12:26:23.025Z,5.50
2017-12-29T12:27:27.758Z,5.50
2017-12-29T12:28:33.309Z,5.50
2017-12-29T12:29:39.288Z,5.50
2017-12-29T12:30:44.054Z,5.50
2017-12-29T12:31:49.595Z,5.40
2017-12-29T12:32:55.131Z,5.30
2017-12-29T12:34:00.688Z,5.20
2017-12-29T12:35:05.441Z,5.20
2017-12-29T12:36:10.621Z,5.20
2017-12-29T12:37:16.102Z,5.20
2017-12-29T12:38:20.775Z,5.20
2017-12-29T12:39:26.311Z,5.20
2017-12-29T12:40:31.794Z,5.20
2017-12-29T12:41:36.545Z,5.20
2017-12-29T12:42:41.792Z,5.10
2017-12-29T12:43:47.258Z,5.00
2017-12-29T12:44:51.993Z,5.00
2017-12-29T12:45:56.773Z,5.00
2017-12-29T12:47:01.675Z,5.00
2017-12-29T12:48:06.522Z,5.00
2017-12-29T12:49:11.714Z,5.00
2017-12-29T12:50:16.422Z,4.90
2017-12-29T12:51:21.310Z,4.90
2017-12-29T12:52:26.354Z,4.80
2017-12-29T12:53:31.100Z,4.70
2017-12-29T12:54:36.601Z,4.70
2017-12-29T12:55:41.797Z,4.60
2017-12-29T12:56:46.578Z,4.60
2017-12-29T12:57:52.042Z,4.50
2017-12-29T12:58:56.799Z,4.50
2017-12-29T13:00:01.544Z,4.50
2017-12-29T13:01:07.078Z,4.60
2017-12-29T13:02:13.141Z,4.60
2017-12-29T13:03:18.641Z,4.60
2017-12-29T13:04:23.441Z,4.50
2017-12-29T13:05:28.194Z,4.60
2017-12-29T13:06:33.776Z,4.60
2017-12-29T13:07:38.762Z,4.60
2017-12-29T13:08:44.727Z,4.70
2017-12-29T13:09:49.818Z,4.70
2017-12-29T13:10:54.693Z,4.70
2017-12-29T13:11:59.451Z,4.70
2017-12-29T13:13:04.753Z,4.60
2017-12-29T13:14:09.690Z,4.60
2017-12-29T13:15:14.893Z,4.50
2017-12-29T13:16:19.758Z,4.50
2017-12-29T13:17:24.630Z,4.50
2017-12-29T13:18:29.726Z,4.40
2017-12-29T13:19:35.339Z,4.40
2017-12-29T13:20:40.277Z,4.40
2017-12-29T13:21:48.778Z,4.40
2017-12-29T13:22:54.714Z,4.40
2017-12-29T13:24:00.350Z,4.40
2017-12-29T13:25:05.164Z,4.30
2017-12-29T13:26:10.093Z,4.30
2017-12-29T13:27:15.809Z,4.30
2017-12-29T13:28:21.880Z,4.30
2017-12-29T13:29:29.154Z,4.30
2017-12-29T13:30:34.008Z,4.30
2017-12-29T13:31:38.893Z,4.30
2017-12-29T13:32:43.760Z,4.30
2017-12-29T13:33:48.545Z,4.30
2017-12-29T13:34:54.422Z,4.30
2017-12-29T13:35:59.202Z,4.30
2017-12-29T13:37:04.884Z,4.20
2017-12-29T13:38:09.918Z,4.20
2017-12-29T13:39:15.466Z,4.10
2017-12-29T13:40:20.310Z,4.10
2017-12-29T13:41:25.444Z,4.10
2017-12-29T13:42:30.319Z,4.10
2017-12-29T13:43:35.185Z,4.10
2017-12-29T13:44:40.723Z,4.10
2017-12-29T13:45:46.703Z,4.00
2017-12-29T13:46:52.007Z,4.00
2017-12-29T13:47:57.488Z,3.90
2017-12-29T13:49:02.369Z,4.00
2017-12-29T13:50:08.218Z,4.00
2017-12-29T13:51:14.005Z,4.00
2017-12-29T13:52:19.239Z,3.90
2017-12-29T13:53:24.456Z,3.90
2017-12-29T13:55:59.191Z,3.90
2017-12-29T13:57:05.399Z,3.90
2017-12-29T13:58:11.575Z,4.00
2017-12-29T13:59:16.767Z,3.90
2017-12-29T14:00:22.708Z,3.90
2017-12-29T14:01:28.127Z,3.90
2017-12-29T14:02:34.083Z,3.90
2017-12-29T14:03:40.023Z,3.80
2017-12-29T14:04:45.229Z,3.80
2017-12-29T14:05:50.302Z,3.80
2017-12-29T14:06:55.547Z,3.80
2017-12-29T14:08:01.205Z,3.80
2017-12-29T14:09:06.988Z,3.70
2017-12-29T14:10:12.965Z,3.70
2017-12-29T14:11:18.128Z,3.70
2017-12-29T14:12:23.384Z,3.60
2017-12-29T14:13:28.606Z,3.50
2017-12-29T14:14:34.115Z,3.50
2017-12-29T14:15:39.332Z,3.50
2017-12-29T14:16:44.489Z,3.50
2017-12-29T14:17:49.363Z,3.40
2017-12-29T14:18:54.562Z,3.40
2017-12-29T14:20:00.534Z,3.40
2017-12-29T14:21:06.062Z,3.30
2017-12-29T14:22:12.036Z,3.20
2017-12-29T14:23:18.780Z,3.20
2017-12-29T14:24:23.945Z,3.10
2017-12-29T14:25:29.168Z,3.10
2017-12-29T14:26:34.348Z,3.10
2017-12-29T14:27:40.659Z,3.00
2017-12-29T14:28:45.854Z,3.00
2017-12-29T14:29:50.984Z,3.00
2017-12-29T14:30:56.143Z,3.00
2017-12-29T14:32:02.235Z,3.00
2017-12-29T14:33:08.223Z,2.90
2017-12-29T14:34:13.903Z,2.90
2017-12-29T14:35:19.771Z,3.00
2017-12-29T14:36:25.377Z,3.00
2017-12-29T14:37:30.486Z,3.00
2017-12-29T14:38:35.663Z,3.00
2017-12-29T14:39:40.938Z,2.90
2017-12-29T14:40:46.587Z,3.00
2017-12-29T14:41:51.651Z,3.00
2017-12-29T14:43:18.190Z,3.00
2017-12-29T14:44:24.526Z,3.00
2017-12-29T14:45:31.038Z,3.00
2017-12-29T14:46:36.850Z,3.00
2017-12-29T14:47:42.682Z,3.00
2017-12-29T14:48:48.015Z,3.00
2017-12-29T14:49:53.378Z,3.00
2017-12-29T14:50:58.752Z,3.10
2017-12-29T14:55:11.130Z,3.00
2017-12-29T14:56:16.903Z,2.90
2017-12-29T14:57:22.721Z,2.90
2017-12-29T14:58:29.536Z,2.90
2017-12-29T14:59:34.782Z,2.90
2017-12-29T15:00:40.302Z,2.90
2017-12-29T15:01:45.567Z,3.00
2017-12-29T15:02:50.840Z,3.00
2017-12-29T15:03:56.217Z,2.90
2017-12-29T15:05:01.502Z,3.00
2017-12-29T15:06:07.378Z,2.90
2017-12-29T15:07:12.918Z,2.90
2017-12-29T15:08:18.183Z,2.90
2017-12-29T15:09:23.431Z,2.80
2017-12-29T15:10:28.788Z,2.70
2017-12-29T15:11:35.190Z,2.70
2017-12-29T15:12:40.394Z,2.70
2017-12-29T15:13:45.532Z,2.70
2017-12-29T15:14:50.662Z,2.70
2017-12-29T15:15:55.430Z,2.70
2017-12-29T15:22:21.175Z,2.50
2017-12-29T15:23:36.915Z,2.50
2017-12-29T15:24:41.771Z,2.50
2017-12-29T15:25:47.325Z,2.50
2017-12-29T15:26:53.245Z,2.40
2017-12-29T15:27:58.019Z,2.40
2017-12-29T15:29:03.614Z,2.40
2017-12-29T15:30:09.176Z,2.50